Time;durP1;ratioP1;P1;durP2;ratioP2;P2;SDS_P1;SDS_P2;PMS_P1;PMS_P2;Temp;Humidity;BMP_temperature;BMP_pressure;BME280_temperature;BME280_humidity;BME280_pressure;Samples;Min_cycle;Max_cycle;Signal;HPM_P1;HPM_P2
2024/02/06 00:00:05;;;;;;;13.32;8.95;;;;;;;6.96;83.55;98448.31;5074021;28;20115;-73
2024/02/06 00:02:33;;;;;;;15.13;8.82;;;;;;;7.02;82.02;98440.47;5072683;28;20032;-72
2024/02/06 00:04:59;;;;;;;19.83;9.40;;;;;;;6.94;82.46;98439.69;5072696;28;20040;-72
2024/02/06 00:07:24;;;;;;;13.88;8.80;;;;;;;6.98;83.00;98440.88;5073980;28;20036;-72
2024/02/06 00:09:49;;;;;;;15.15;8.90;;;;;;;6.92;82.94;98433.72;5073172;28;20037;-72
2024/02/06 00:12:15;;;;;;;13.65;9.52;;;;;;;6.99;82.81;98436.38;5072656;28;20023;-73
2024/02/06 00:14:40;;;;;;;15.60;9.48;;;;;;;6.94;82.63;98422.78;5073938;28;20035;-73
2024/02/06 00:17:06;;;;;;;17.42;9.40;;;;;;;6.98;82.43;98424.81;5055861;28;20480;-73
2024/02/06 00:19:31;;;;;;;12.48;9.20;;;;;;;6.92;82.40;98422.19;5073920;28;20533;-72
2024/02/06 00:21:56;;;;;;;16.15;9.48;;;;;;;6.86;81.93;98404.34;5071702;28;20025;-71
2024/02/06 00:24:22;;;;;;;13.57;9.15;;;;;;;6.69;82.84;98387.97;5070045;28;20556;-72
2024/02/06 00:26:47;;;;;;;14.77;10.15;;;;;;;6.84;81.62;98412.56;5071628;28;20016;-70
2024/02/06 00:29:13;;;;;;;16.58;9.82;;;;;;;6.86;81.85;98410.47;5073765;28;20040;-71
2024/02/06 00:31:38;;;;;;;16.25;9.73;;;;;;;6.82;82.07;98409.28;5073572;28;20471;-72
2024/02/06 00:34:03;;;;;;;19.20;10.65;;;;;;;6.80;81.72;98406.00;5072033;28;20036;-72
2024/02/06 00:36:31;;;;;;;18.58;9.88;;;;;;;6.87;81.91;98411.31;5073392;28;20060;-72
2024/02/06 00:38:56;;;;;;;17.38;9.80;;;;;;;6.84;82.10;98407.19;5070285;28;20043;-72
2024/02/06 00:41:21;;;;;;;19.17;10.85;;;;;;;6.80;82.04;98400.66;5070541;28;20024;-72
2024/02/06 00:43:48;;;;;;;17.10;9.63;;;;;;;6.81;81.77;98412.97;5071948;28;20043;-72
2024/02/06 00:46:13;;;;;;;18.92;10.65;;;;;;;6.88;81.51;98408.41;5071840;28;20074;-71
2024/02/06 00:48:38;;;;;;;19.50;10.57;;;;;;;6.84;81.65;98401.84;5071879;28;20456;-72
2024/02/06 00:51:04;;;;;;;19.65;9.88;;;;;;;6.79;82.41;98388.28;5072046;28;20017;-72
2024/02/06 00:53:29;;;;;;;16.92;10.10;;;;;;;6.81;81.65;98406.81;5072063;28;20502;-72
2024/02/06 00:55:55;;;;;;;22.00;10.57;;;;;;;6.64;81.69;98378.94;5072162;28;20024;-72
2024/02/06 00:58:20;;;;;;;17.50;10.48;;;;;;;6.86;82.05;98405.13;5072802;28;20040;-71
2024/02/06 01:00:45;;;;;;;24.77;10.45;;;;;;;6.88;81.18;98403.06;5070257;28;20021;-72
2024/02/06 01:03:11;;;;;;;15.90;10.85;;;;;;;6.80;81.92;98403.31;5072689;28;20248;-71
2024/02/06 01:05:36;;;;;;;20.17;10.70;;;;;;;6.79;81.63;98393.63;5072989;28;20107;-71
2024/02/06 01:08:02;;;;;;;18.80;10.30;;;;;;;6.71;81.54;98385.88;5072745;28;20033;-71
2024/02/06 01:10:27;;;;;;;16.27;9.82;;;;;;;6.80;81.32;98389.94;5071631;28;20498;-71
2024/02/06 01:12:52;;;;;;;18.58;10.82;;;;;;;6.75;82.01;98386.25;5072794;28;20039;-70
2024/02/06 01:15:18;;;;;;;20.10;10.63;;;;;;;6.74;82.02;98393.50;5072564;28;20026;-71
2024/02/06 01:17:43;;;;;;;17.58;10.45;;;;;;;6.77;82.35;98389.53;5071638;28;20067;-71
2024/02/06 01:20:09;;;;;;;16.65;10.45;;;;;;;6.81;82.17;98385.41;5072016;28;20078;-71
2024/02/06 01:22:34;;;;;;;15.15;10.05;;;;;;;6.77;80.84;98379.66;5072554;28;20033;-71
2024/02/06 01:25:00;;;;;;;19.45;11.40;;;;;;;6.73;82.11;98378.47;5072221;28;20028;-71
2024/02/06 01:27:25;;;;;;;19.30;10.18;;;;;;;6.63;81.88;98356.69;5072381;28;20064;-71
2024/02/06 01:29:51;;;;;;;20.45;10.45;;;;;;;6.65;81.66;98365.31;5072485;28;20034;-70
2024/02/06 01:32:16;;;;;;;21.38;10.82;;;;;;;6.84;80.99;98377.75;5070841;28;20029;-71
2024/02/06 01:34:42;;;;;;;16.15;9.82;;;;;;;6.74;81.35;98365.91;5070942;28;20472;-71
2024/02/06 01:37:07;;;;;;;17.48;10.23;;;;;;;6.81;81.25;98375.50;5064059;28;20044;-70
2024/02/06 01:39:32;;;;;;;19.35;11.10;;;;;;;6.80;81.46;98384.59;5072155;28;20025;-71
2024/02/06 01:41:58;;;;;;;19.05;11.13;;;;;;;6.84;81.53;98382.28;5070925;28;20447;-71
2024/02/06 01:44:24;;;;;;;19.33;11.30;;;;;;;6.77;81.90;98382.34;5067235;28;20031;-71
2024/02/06 01:46:51;;;;;;;19.23;10.40;;;;;;;6.66;81.05;98355.44;5072218;28;20032;-71
2024/02/06 01:49:16;;;;;;;19.42;11.10;;;;;;;6.68;81.38;98358.72;5063821;28;20036;-70
2024/02/06 01:51:44;;;;;;;19.08;11.18;;;;;;;6.68;82.38;98362.22;5072036;28;20040;-71
2024/02/06 01:54:10;;;;;;;18.40;10.27;;;;;;;6.81;81.62;98374.72;5071540;28;20365;-70
2024/02/06 01:56:35;;;;;;;19.67;10.57;;;;;;;6.78;81.90;98375.97;5071811;28;20040;-71
2024/02/06 01:59:01;;;;;;;19.10;10.27;;;;;;;6.79;81.57;98360.72;5071537;28;20490;-72
2024/02/06 02:01:27;;;;;;;16.30;11.05;;;;;;;6.78;81.59;98375.13;5070660;28;20025;-72
2024/02/06 02:03:52;;;;;;;16.95;10.38;;;;;;;6.78;81.84;98370.59;5070391;28;20443;-72
2024/02/06 02:06:19;;;;;;;19.85;11.10;;;;;;;6.84;81.36;98371.59;5070497;28;20139;-72
2024/02/06 02:08:45;;;;;;;18.20;10.45;;;;;;;6.78;80.96;98370.59;5070466;28;20115;-72
2024/02/06 02:11:10;;;;;;;18.63;11.25;;;;;;;6.77;81.18;98374.31;5071886;28;20465;-70
2024/02/06 02:13:37;;;;;;;20.13;10.65;;;;;;;6.79;80.95;98372.22;5069926;28;20028;-70
2024/02/06 02:16:04;;;;;;;17.50;11.27;;;;;;;6.81;81.18;98359.44;5071630;28;20040;-71
2024/02/06 02:18:33;;;;;;;19.67;11.65;;;;;;;6.83;80.87;98362.75;5071632;28;20024;-69
2024/02/06 02:20:58;;;;;;;18.35;11.55;;;;;;;6.81;80.92;98364.00;5070253;28;20036;-69
2024/02/06 02:23:24;;;;;;;20.70;11.77;;;;;;;6.64;81.60;98336.94;5071334;28;20070;-69
2024/02/06 02:25:50;;;;;;;16.52;10.70;;;;;;;6.73;81.67;98359.72;5071853;28;20055;-70
2024/02/06 02:28:15;;;;;;;19.90;10.82;;;;;;;6.76;82.12;98364.66;5071260;28;20502;-69
2024/02/06 02:30:41;;;;;;;20.90;11.73;;;;;;;6.73;82.43;98366.94;5072088;28;20552;-70
2024/02/06 02:33:07;;;;;;;18.92;10.50;;;;;;;6.80;81.81;98362.34;5071658;28;20025;-69
2024/02/06 02:35:32;;;;;;;18.58;11.85;;;;;;;6.62;81.51;98351.56;5072213;28;20036;-71
2024/02/06 02:37:58;;;;;;;19.63;11.18;;;;;;;6.65;82.19;98365.31;5072138;28;20028;-73
2024/02/06 02:40:23;;;;;;;15.00;11.00;;;;;;;6.70;81.53;98368.16;5070947;28;20424;-72
2024/02/06 02:42:48;;;;;;;18.98;11.85;;;;;;;6.55;82.08;98342.75;5070083;28;20017;-73
2024/02/06 02:45:14;;;;;;;18.15;11.68;;;;;;;6.64;81.38;98354.84;5071150;28;20043;-72
2024/02/06 02:47:39;;;;;;;18.67;11.82;;;;;;;6.65;81.85;98359.97;5069932;28;20469;-72
2024/02/06 02:50:05;;;;;;;17.25;11.13;;;;;;;6.69;81.07;98353.16;5070051;28;20032;-74
2024/02/06 02:52:30;;;;;;;16.20;11.20;;;;;;;6.68;81.89;98359.53;5069637;28;20020;-72
2024/02/06 02:54:56;;;;;;;16.38;10.52;;;;;;;6.67;82.54;98357.91;5071190;28;20115;-72
2024/02/06 02:57:21;;;;;;;27.50;11.85;;;;;;;6.59;82.03;98360.84;5071078;28;20028;-71
2024/02/06 02:59:46;;;;;;;17.15;9.85;;;;;;;6.48;82.20;98336.63;5071344;28;20443;-71
2024/02/06 03:02:12;;;;;;;19.90;11.00;;;;;;;6.58;81.55;98347.69;5070683;28;20071;-71
2024/02/06 03:04:37;;;;;;;17.98;11.07;;;;;;;6.59;82.05;98344.78;5070334;28;20120;-71
2024/02/06 03:07:03;;;;;;;17.65;11.55;;;;;;;6.59;82.17;98344.78;5052555;28;20111;-70
2024/02/06 03:09:28;;;;;;;15.98;11.00;;;;;;;6.58;82.65;98353.03;5070761;28;20040;-71
2024/02/06 03:11:54;;;;;;;20.45;10.90;;;;;;;6.46;82.34;98334.19;5070746;28;20017;-71
2024/02/06 03:14:19;;;;;;;16.50;10.98;;;;;;;6.53;82.58;98351.00;5070314;28;20036;-71
2024/02/06 03:16:44;;;;;;;16.05;10.68;;;;;;;6.60;81.90;98346.44;5070426;28;20089;-72
2024/02/06 03:19:10;;;;;;;18.88;11.68;;;;;;;6.64;81.54;98346.81;5070627;28;20040;-71
2024/02/06 03:21:35;;;;;;;18.55;10.98;;;;;;;6.62;81.64;98343.53;5070566;28;20024;-71
2024/02/06 03:24:01;;;;;;;21.65;11.48;;;;;;;6.54;82.28;98341.09;5068922;28;20400;-72
2024/02/06 03:26:26;;;;;;;17.15;11.30;;;;;;;6.57;81.76;98336.16;5069014;28;20028;-72
2024/02/06 03:28:51;;;;;;;16.83;11.20;;;;;;;6.56;82.33;98339.84;5070438;28;20454;-72
2024/02/06 03:31:17;;;;;;;17.13;11.15;;;;;;;6.54;81.54;98347.28;5069235;28;20025;-71
2024/02/06 03:33:42;;;;;;;20.20;11.60;;;;;;;6.54;82.01;98349.97;5070148;28;20098;-72
2024/02/06 03:36:08;;;;;;;20.15;11.80;;;;;;;6.54;82.80;98335.75;5070479;28;20028;-73
2024/02/06 03:38:34;;;;;;;19.88;11.73;;;;;;;6.42;82.33;98334.81;5070279;28;20045;-73
2024/02/06 03:40:59;;;;;;;24.33;12.32;;;;;;;6.51;82.92;98341.56;5070218;28;20032;-71
2024/02/06 03:43:25;;;;;;;17.80;11.63;;;;;;;6.48;82.96;98337.44;5071302;28;20086;-72
2024/02/06 03:45:50;;;;;;;20.02;11.65;;;;;;;6.45;82.91;98343.22;5073997;28;20469;-71
2024/02/06 03:48:15;;;;;;;20.95;12.57;;;;;;;6.47;82.77;98343.81;5073787;28;20037;-72
2024/02/06 03:50:41;;;;;;;17.55;11.75;;;;;;;6.50;83.44;98348.75;5073879;28;20031;-73
2024/02/06 03:53:08;;;;;;;17.88;12.30;;;;;;;6.43;83.05;98333.78;5073528;28;20052;-75
2024/02/06 03:55:33;;;;;;;18.10;11.95;;;;;;;6.39;83.24;98333.41;5055899;28;20108;-74
2024/02/06 03:57:58;;;;;;;19.63;12.05;;;;;;;6.41;83.25;98336.66;5074574;28;20119;-72
2024/02/06 04:00:24;;;;;;;14.77;11.70;;;;;;;6.46;83.23;98344.03;5071943;28;20029;-75
2024/02/06 04:02:49;;;;;;;18.98;11.95;;;;;;;6.44;83.55;98346.91;5073501;28;20040;-74
2024/02/06 04:05:14;;;;;;;19.58;11.30;;;;;;;6.45;83.55;98343.22;5073773;28;20024;-73
2024/02/06 04:07:40;;;;;;;15.63;11.75;;;;;;;6.53;82.69;98344.84;5052141;28;20116;-73
2024/02/06 04:10:06;;;;;;;18.88;11.55;;;;;;;6.49;82.92;98354.31;5071210;28;20484;-73
2024/02/06 04:12:31;;;;;;;17.98;11.20;;;;;;;6.43;83.31;98345.28;5073581;28;20036;-73
2024/02/06 04:14:58;;;;;;;18.23;11.15;;;;;;;6.54;82.66;98347.28;5072101;28;20029;-72
2024/02/06 04:17:23;;;;;;;17.88;12.50;;;;;;;6.54;83.09;98347.28;5055510;28;20036;-71
2024/02/06 04:19:48;;;;;;;19.08;12.27;;;;;;;6.52;82.62;98349.34;5073359;28;20024;-72
2024/02/06 04:22:14;;;;;;;17.92;11.55;;;;;;;6.58;82.37;98345.81;5072159;28;20548;-73
2024/02/06 04:24:39;;;;;;;16.90;10.25;;;;;;;6.56;82.11;98357.78;5072346;28;20024;-73
2024/02/06 04:27:05;;;;;;;15.80;10.23;;;;;;;6.57;82.20;98346.88;5074606;28;20078;-74
2024/02/06 04:29:30;;;;;;;19.10;10.43;;;;;;;6.57;82.34;98341.50;5072506;28;20103;-73
2024/02/06 04:31:55;;;;;;;15.88;10.73;;;;;;;6.58;82.49;98337.78;5072403;28;20032;-71
2024/02/06 04:34:21;;;;;;;13.95;10.45;;;;;;;6.59;82.19;98344.78;5073099;28;20020;-72
2024/02/06 04:36:46;;;;;;;15.25;10.70;;;;;;;6.54;82.53;98346.47;5073276;28;20500;-73
2024/02/06 04:39:12;;;;;;;16.77;9.77;;;;;;;6.59;81.77;98333.25;5072003;28;20099;-73
2024/02/06 04:41:37;;;;;;;19.75;9.93;;;;;;;6.55;81.83;98326.69;5070905;28;20115;-74
2024/02/06 04:44:03;;;;;;;17.25;10.98;;;;;;;6.39;81.75;98317.34;5072504;28;20031;-73
2024/02/06 04:46:28;;;;;;;18.77;10.65;;;;;;;6.39;81.57;98313.84;5071894;28;20044;-73
2024/02/06 04:48:53;;;;;;;17.95;11.02;;;;;;;6.39;82.17;98314.66;5072968;28;20422;-73
2024/02/06 04:51:19;;;;;;;18.70;11.77;;;;;;;6.44;82.49;98322.84;5072740;28;20032;-73
2024/02/06 04:53:44;;;;;;;17.92;11.40;;;;;;;6.51;82.90;98323.63;5068276;28;20370;-73
2024/02/06 04:56:12;;;;;;;18.60;11.80;;;;;;;6.33;81.89;98307.47;5051792;28;20082;-73
2024/02/06 04:58:37;;;;;;;23.90;11.77;;;;;;;6.36;82.33;98301.72;5073050;28;20116;-73
2024/02/06 05:01:02;;;;;;;17.83;10.60;;;;;;;6.42;82.23;98319.56;5071450;28;20040;-76
2024/02/06 05:03:28;;;;;;;22.08;11.43;;;;;;;6.51;82.19;98310.25;5070838;28;20023;-73
2024/02/06 05:05:53;;;;;;;18.00;10.98;;;;;;;6.32;82.93;98287.13;5071315;28;20458;-72
2024/02/06 05:08:19;;;;;;;39.90;31.63;;;;;;;6.48;82.96;98310.69;5071208;28;20403;-72
2024/02/06 05:10:47;;;;;;;143.68;102.72;;;;;;;6.44;82.72;98304.13;5072431;28;20036;-72
2024/02/06 05:13:12;;;;;;;25.75;17.85;;;;;;;6.44;83.33;98306.78;5063894;28;20035;-73
2024/02/06 05:15:38;;;;;;;19.05;11.75;;;;;;;6.48;82.93;98313.38;5071991;28;20040;-73
2024/02/06 05:18:03;;;;;;;15.90;10.77;;;;;;;6.48;82.69;98300.00;5072170;28;20031;-73
2024/02/06 05:20:29;;;;;;;18.08;11.75;;;;;;;6.45;83.30;98300.41;5072090;28;20036;-73
2024/02/06 05:22:54;;;;;;;18.52;11.85;;;;;;;6.46;83.03;98310.09;5056055;28;20028;-72
2024/02/06 05:25:20;;;;;;;18.30;11.75;;;;;;;6.38;84.04;98305.00;5064376;28;20036;-72
2024/02/06 05:27:45;;;;;;;15.77;10.88;;;;;;;6.44;83.94;98306.78;5072135;28;20116;-73
2024/02/06 05:30:11;;;;;;;17.92;10.98;;;;;;;6.39;83.93;98303.97;5070792;28;20059;-73
2024/02/06 05:32:37;;;;;;;18.38;12.00;;;;;;;6.42;84.13;98310.75;5071890;28;20055;-74
2024/02/06 05:35:03;;;;;;;19.88;11.48;;;;;;;6.45;83.31;98299.59;5071947;28;20037;-75
2024/02/06 05:37:29;;;;;;;16.08;11.20;;;;;;;6.33;84.02;98291.44;5052021;28;20268;-76
2024/02/06 05:39:54;;;;;;;17.17;12.27;;;;;;;6.41;83.91;98298.41;5072530;28;20094;-73
2024/02/06 05:42:20;;;;;;;17.25;10.73;;;;;;;6.27;84.35;98276.25;5053185;28;20031;-74
2024/02/06 05:44:45;;;;;;;16.23;10.65;;;;;;;6.34;84.46;98293.09;5066514;28;20024;-75
2024/02/06 05:47:11;;;;;;;17.40;12.05;;;;;;;6.37;84.35;98287.28;5072972;28;20469;-74
2024/02/06 05:49:40;;;;;;;18.73;10.75;;;;;;;6.24;84.09;98282.03;5037888;28;20036;-76
2024/02/06 05:52:06;;;;;;;17.38;11.63;;;;;;;6.35;84.96;98284.03;5054799;28;20063;-72
2024/02/06 05:54:31;;;;;;;15.45;10.50;;;;;;;6.37;84.48;98287.28;5054825;28;20478;-75
2024/02/06 05:56:57;;;;;;;15.55;10.65;;;;;;;6.34;84.63;98293.09;5071346;28;20052;-72
2024/02/06 05:59:24;;;;;;;18.38;10.85;;;;;;;6.31;84.24;98274.78;5065204;28;20059;-73
2024/02/06 06:01:51;;;;;;;15.32;10.25;;;;;;;6.38;85.06;98294.28;5069508;28;20146;-72
2024/02/06 06:04:16;;;;;;;17.48;10.85;;;;;;;6.40;84.24;98286.88;5068669;28;20040;-72
2024/02/06 06:06:42;;;;;;;14.90;9.85;;;;;;;6.34;84.58;98293.09;5070773;28;20055;-72
2024/02/06 06:09:09;;;;;;;20.70;10.27;;;;;;;6.36;84.93;98290.19;5068811;28;20071;-71
2024/02/06 06:11:34;;;;;;;20.65;11.43;;;;;;;6.29;85.32;98279.53;5070191;28;20043;-72
2024/02/06 06:14:00;;;;;;;16.50;11.13;;;;;;;6.31;85.82;98293.50;5069729;28;20060;-72
2024/02/06 06:16:25;;;;;;;20.48;10.70;;;;;;;6.28;86.67;98282.44;5050487;28;20481;-71
2024/02/06 06:18:50;;;;;;;18.08;11.60;;;;;;;6.28;85.45;98288.59;5071068;28;20076;-71
2024/02/06 06:21:16;;;;;;;18.58;11.52;;;;;;;6.33;86.18;98285.25;5069880;28;20020;-72
2024/02/06 06:23:41;;;;;;;18.52;12.05;;;;;;;6.28;86.98;98275.22;5069559;28;20044;-71
2024/02/06 06:26:07;;;;;;;20.83;11.98;;;;;;;6.17;86.42;98265.22;5070963;28;20031;-72
2024/02/06 06:28:32;;;;;;;23.25;12.77;;;;;;;6.33;87.04;98270.03;5071050;28;20059;-72
2024/02/06 06:30:57;;;;;;;17.38;12.60;;;;;;;6.31;87.01;98277.47;5071147;28;20025;-72
2024/02/06 06:33:23;;;;;;;19.58;11.75;;;;;;;6.37;87.28;98278.47;5070541;28;20104;-72
2024/02/06 06:35:48;;;;;;;17.73;11.45;;;;;;;6.39;87.05;98266.53;5070975;28;20020;-71
2024/02/06 06:38:13;;;;;;;19.70;11.80;;;;;;;6.43;86.80;98265.06;5070672;28;20484;-71
2024/02/06 06:40:39;;;;;;;16.52;11.57;;;;;;;6.47;86.56;98260.91;5070858;28;20085;-72
2024/02/06 06:43:05;;;;;;;14.55;10.63;;;;;;;6.54;87.28;98261.66;5069289;28;20043;-71
2024/02/06 06:45:31;;;;;;;18.45;11.05;;;;;;;6.40;86.96;98238.72;5069681;28;20034;-72
2024/02/06 06:47:56;;;;;;;18.67;11.93;;;;;;;6.50;86.56;98257.78;5069205;28;20036;-72
2024/02/06 06:50:21;;;;;;;21.58;11.90;;;;;;;6.54;86.31;98255.50;5071121;28;20020;-72
2024/02/06 06:52:47;;;;;;;17.63;12.05;;;;;;;6.57;85.96;98245.19;5070585;28;20107;-72
2024/02/06 06:55:12;;;;;;;21.08;11.23;;;;;;;6.51;87.00;98254.06;5070628;28;20028;-72
2024/02/06 06:57:42;;;;;;;15.93;10.93;;;;;;;6.46;87.00;98243.22;5069282;28;20036;-70
2024/02/06 07:00:11;;;;;;;18.85;11.75;;;;;;;6.58;85.75;98252.16;5070753;28;20508;-71
2024/02/06 07:02:36;;;;;;;17.95;10.98;;;;;;;6.59;86.47;98245.78;5062679;28;20129;-71
2024/02/06 07:05:02;;;;;;;16.95;12.05;;;;;;;6.58;86.39;98246.81;5070399;28;20547;-72
2024/02/06 07:07:28;;;;;;;19.27;11.73;;;;;;;6.55;86.80;98247.28;5059993;28;20074;-72
2024/02/06 07:09:53;;;;;;;15.88;11.50;;;;;;;6.50;86.19;98239.06;5065032;28;20041;-71
2024/02/06 07:12:18;;;;;;;18.45;12.00;;;;;;;6.64;86.20;98245.97;5060928;28;20026;-71
2024/02/06 07:14:44;;;;;;;20.30;11.55;;;;;;;6.53;85.75;98227.94;5068508;28;20036;-72
2024/02/06 07:17:10;;;;;;;19.50;11.85;;;;;;;6.66;86.37;98248.41;5071489;28;20029;-72
2024/02/06 07:19:35;;;;;;;18.77;12.38;;;;;;;6.59;86.91;98242.28;5073791;28;20484;-71
2024/02/06 07:22:01;;;;;;;25.23;15.10;;;;;;;6.61;86.53;98249.06;5071599;28;20065;-72
2024/02/06 07:24:26;;;;;;;22.13;15.52;;;;;;;6.52;85.60;98220.94;5070699;28;20028;-70
2024/02/06 07:26:54;;;;;;;18.27;12.85;;;;;;;6.69;85.81;98243.47;5074798;28;20036;-71
2024/02/06 07:29:20;;;;;;;33.10;18.33;;;;;;;6.65;86.11;98247.59;5067768;28;20071;-71
2024/02/06 07:31:46;;;;;;;23.67;15.77;;;;;;;6.59;85.53;98231.59;5074819;28;20052;-71
2024/02/06 07:34:11;;;;;;;16.02;12.15;;;;;;;6.58;85.84;98228.09;5074378;28;20573;-70
2024/02/06 07:36:36;;;;;;;17.73;11.07;;;;;;;6.61;86.28;98235.69;5073249;28;20025;-71
2024/02/06 07:39:02;;;;;;;18.63;11.95;;;;;;;6.55;85.95;98228.53;5062809;28;20413;-71
2024/02/06 07:41:27;;;;;;;16.83;12.10;;;;;;;6.67;86.01;98234.00;5073216;28;20065;-72
2024/02/06 07:43:52;;;;;;;18.25;12.40;;;;;;;6.73;85.83;98238.47;5072390;28;20044;-72
2024/02/06 07:46:18;;;;;;;16.83;12.18;;;;;;;6.72;85.82;98252.91;5066705;28;20023;-72
2024/02/06 07:48:44;;;;;;;13.75;10.35;;;;;;;6.55;85.81;98244.59;5071462;28;20399;-72
2024/02/06 07:51:11;;;;;;;17.58;13.15;;;;;;;6.55;85.07;98239.25;5070425;28;20491;-72
2024/02/06 07:53:36;;;;;;;17.38;11.07;;;;;;;6.65;85.19;98255.59;5072900;28;20044;-72
2024/02/06 07:56:04;;;;;;;14.65;10.80;;;;;;;6.65;85.81;98260.97;5066736;28;20106;-72
2024/02/06 07:58:29;;;;;;;17.85;12.27;;;;;;;6.57;85.94;98261.25;5074304;28;20033;-72
2024/02/06 08:00:55;;;;;;;19.35;13.07;;;;;;;6.58;84.64;98252.16;5072925;28;20028;-72
2024/02/06 08:03:20;;;;;;;17.13;13.32;;;;;;;6.66;85.23;98261.78;5073952;28;20043;-72
2024/02/06 08:05:46;;;;;;;14.48;11.20;;;;;;;6.71;84.27;98262.78;5056150;28;20028;-72
2024/02/06 08:08:11;;;;;;;15.48;12.30;;;;;;;6.74;84.69;98273.06;5073915;28;20129;-72
2024/02/06 08:10:37;;;;;;;15.32;9.38;;;;;;;6.69;84.91;98270.22;5072881;28;20032;-72
2024/02/06 08:13:02;;;;;;;14.02;11.15;;;;;;;6.71;84.83;98268.13;5072562;28;20051;-71
2024/02/06 08:15:28;;;;;;;14.15;9.93;;;;;;;6.67;85.04;98274.97;5052800;28;20025;-72
2024/02/06 08:17:53;;;;;;;12.98;8.93;;;;;;;6.66;84.13;98278.66;5069699;28;20044;-72
2024/02/06 08:20:19;;;;;;;12.43;9.73;;;;;;;6.63;84.12;98279.09;5073434;28;20032;-72
2024/02/06 08:22:47;;;;;;;17.45;8.80;;;;;;;6.77;84.23;98272.59;5057167;28;20033;-72
2024/02/06 08:25:13;;;;;;;10.63;8.98;;;;;;;6.68;83.97;98262.38;5069228;28;20170;-72
2024/02/06 08:27:39;;;;;;;14.23;8.85;;;;;;;6.75;84.27;98269.34;5072308;28;20041;-72
2024/02/06 08:30:05;;;;;;;12.73;9.65;;;;;;;6.78;84.28;98279.59;5072203;28;20032;-72
2024/02/06 08:32:31;;;;;;;12.25;8.85;;;;;;;6.73;84.23;98273.25;5070050;28;20039;-71
2024/02/06 08:34:56;;;;;;;14.93;9.70;;;;;;;6.76;83.82;98276.34;5055403;28;20028;-72
2024/02/06 08:37:21;;;;;;;11.68;9.80;;;;;;;6.77;83.98;98261.91;5070669;28;20041;-71
2024/02/06 08:39:47;;;;;;;14.07;9.27;;;;;;;6.76;84.23;98272.84;5071803;28;20073;-72
2024/02/06 08:42:12;;;;;;;11.57;9.30;;;;;;;6.80;83.39;98252.63;5072251;28;20115;-72
2024/02/06 08:44:38;;;;;;;13.98;9.73;;;;;;;6.85;83.92;98250.94;5065886;28;20028;-72
2024/02/06 08:47:03;;;;;;;12.95;9.25;;;;;;;6.87;83.55;98254.19;5071148;28;20452;-72
2024/02/06 08:49:29;;;;;;;13.30;9.05;;;;;;;6.92;83.64;98253.53;5072004;28;20391;-72
2024/02/06 08:51:54;;;;;;;11.85;9.93;;;;;;;6.91;84.02;98249.22;5070012;28;20366;-71
2024/02/06 08:54:20;;;;;;;12.02;9.27;;;;;;;6.95;83.35;98250.44;5068876;28;20064;-71
2024/02/06 08:56:48;;;;;;;11.43;8.75;;;;;;;6.95;83.32;98245.88;5073001;28;20040;-72
2024/02/06 08:59:14;;;;;;;10.85;8.82;;;;;;;6.94;83.53;98249.63;5071576;28;20025;-73
2024/02/06 09:01:40;;;;;;;10.32;8.55;;;;;;;6.97;83.11;98256.38;5071339;28;20048;-71
2024/02/06 09:04:06;;;;;;;13.00;10.75;;;;;;;6.97;82.95;98241.16;5071825;28;20387;-71
2024/02/06 09:06:32;;;;;;;12.77;9.38;;;;;;;6.75;83.24;98213.13;5073749;28;20047;-71
2024/02/06 09:08:58;;;;;;;11.85;8.73;;;;;;;7.00;82.63;98255.97;5072029;28;20024;-71
2024/02/06 09:11:27;;;;;;;10.23;8.68;;;;;;;7.00;82.81;98242.56;5071841;28;20043;-72
2024/02/06 09:13:55;;;;;;;11.52;9.13;;;;;;;6.85;83.26;98226.00;5072564;28;20173;-71
2024/02/06 09:16:23;;;;;;;10.30;8.38;;;;;;;6.95;83.22;98253.13;5072735;28;20063;-71
2024/02/06 09:18:49;;;;;;;11.40;8.98;;;;;;;7.05;83.24;98257.97;5071377;28;20784;-71
2024/02/06 09:21:18;;;;;;;14.18;8.45;;;;;;;6.98;83.33;98255.31;5070822;28;20036;-71
2024/02/06 09:23:44;;;;;;;10.65;9.43;;;;;;;6.82;83.32;98243.34;5051156;28;20400;-71
2024/02/06 09:26:10;;;;;;;14.95;9.25;;;;;;;6.95;83.38;98250.44;5069741;28;20029;-72
2024/02/06 09:28:36;;;;;;;12.32;9.20;;;;;;;7.01;82.66;98246.03;5072428;28;20476;-71
2024/02/06 09:31:02;;;;;;;10.35;8.38;;;;;;;6.92;82.28;98234.81;5072260;28;20439;-71
2024/02/06 09:33:28;;;;;;;10.52;8.50;;;;;;;7.08;82.91;98246.78;5070796;28;20070;-71
2024/02/06 09:35:53;;;;;;;15.20;11.13;;;;;;;7.11;82.28;98230.31;5072318;28;20036;-72
2024/02/06 09:38:18;;;;;;;12.45;9.38;;;;;;;7.12;82.07;98234.63;5072087;28;20021;-71
2024/02/06 09:40:46;;;;;;;12.70;9.65;;;;;;;7.15;81.93;98237.66;5071728;28;20036;-71
2024/02/06 09:43:12;;;;;;;10.00;8.45;;;;;;;7.11;82.39;98236.47;5070464;28;20025;-71
2024/02/06 09:45:37;;;;;;;11.50;8.43;;;;;;;7.10;82.74;98245.53;5066357;28;20550;-71
2024/02/06 09:48:03;;;;;;;10.30;8.07;;;;;;;7.05;82.53;98226.63;5070894;28;20021;-71
2024/02/06 09:50:28;;;;;;;13.30;9.45;;;;;;;7.17;82.63;98254.31;5070826;28;20043;-71
2024/02/06 09:52:56;;;;;;;8.55;7.68;;;;;;;7.19;82.10;98243.41;5072112;28;20034;-71
2024/02/06 09:55:22;;;;;;;11.13;9.68;;;;;;;7.23;82.03;98247.28;5070512;28;20075;-71
2024/02/06 09:57:48;;;;;;;13.13;8.75;;;;;;;7.19;82.54;98240.75;5071913;28;20032;-71
2024/02/06 10:00:14;;;;;;;10.60;8.43;;;;;;;7.28;81.13;98242.09;5070505;28;20036;-71
2024/02/06 10:02:43;;;;;;;12.27;8.15;;;;;;;7.22;82.11;98243.78;5070663;28;20407;-71
2024/02/06 10:05:21;;;;;;;9.38;7.25;;;;;;;7.23;82.02;98239.25;5051417;28;20131;-71
2024/02/06 10:07:47;;;;;;;9.98;7.72;;;;;;;7.28;82.08;98250.13;5054124;28;20090;-71
2024/02/06 10:10:13;;;;;;;13.00;7.40;;;;;;;7.22;82.18;98237.59;5070784;28;20424;-71
2024/02/06 10:12:39;;;;;;;10.43;8.05;;;;;;;7.32;82.25;98248.63;5070672;28;20038;-72
2024/02/06 10:15:06;;;;;;;12.13;8.68;;;;;;;7.39;81.10;98249.38;5070308;28;20663;-71
2024/02/06 10:17:31;;;;;;;11.32;7.10;;;;;;;7.44;81.34;98250.34;5069901;28;20036;-71
2024/02/06 10:20:05;;;;;;;8.57;6.85;;;;;;;7.34;81.19;98235.81;5072068;28;20028;-71
2024/02/06 10:22:31;;;;;;;10.00;8.43;;;;;;;7.47;81.55;98257.09;5064018;28;20036;-71
2024/02/06 10:25:01;;;;;;;9.90;8.10;;;;;;;7.38;81.73;98248.53;5070616;28;20024;-71
2024/02/06 10:27:28;;;;;;;8.18;7.35;;;;;;;7.46;81.42;98250.13;5062515;28;20442;-71
2024/02/06 10:30:01;;;;;;;12.63;7.20;;;;;;;7.49;81.04;98239.75;5068019;28;20047;-72
2024/02/06 10:32:31;;;;;;;13.18;7.07;;;;;;;7.45;81.85;98243.09;5062608;28;20040;-71
2024/02/06 10:35:04;;;;;;;9.25;6.50;;;;;;;7.44;81.10;98252.22;5070144;28;20024;-72
2024/02/06 10:37:34;;;;;;;10.95;7.18;;;;;;;7.39;81.65;98244.00;5064388;28;20048;-71
2024/02/06 10:39:59;;;;;;;11.45;7.03;;;;;;;7.37;82.22;98251.47;5071400;28;20020;-71
2024/02/06 10:42:25;;;;;;;8.40;7.10;;;;;;;7.44;81.75;98241.50;5070188;28;20043;-72
2024/02/06 10:44:55;;;;;;;10.82;6.63;;;;;;;7.39;81.47;98228.78;5071212;28;20024;-71
2024/02/06 10:47:21;;;;;;;8.63;6.28;;;;;;;7.33;81.18;98216.25;5070435;28;20044;-71
2024/02/06 10:49:47;;;;;;;8.75;7.65;;;;;;;7.43;81.17;98234.47;5071667;28;20061;-72
2024/02/06 10:52:12;;;;;;;9.95;7.70;;;;;;;7.38;81.54;98237.00;5071595;28;20040;-72
2024/02/06 10:54:38;;;;;;;8.63;7.38;;;;;;;7.39;82.49;98241.34;5074674;28;20029;-72
2024/02/06 10:57:06;;;;;;;8.18;7.20;;;;;;;7.44;82.43;98230.78;5073376;28;20407;-71
2024/02/06 10:59:34;;;;;;;10.90;7.57;;;;;;;7.41;81.17;98241.94;5073479;28;20024;-71
2024/02/06 11:02:05;;;;;;;9.80;7.75;;;;;;;7.36;81.76;98231.06;5075015;28;20035;-71
2024/02/06 11:04:32;;;;;;;12.10;7.68;;;;;;;7.35;81.82;98216.03;5066142;28;20407;-71
2024/02/06 11:07:05;;;;;;;9.02;6.93;;;;;;;7.46;81.69;98226.00;5056419;28;20027;-71
2024/02/06 11:09:32;;;;;;;9.30;7.28;;;;;;;7.42;82.49;98222.16;5074526;28;20063;-72
2024/02/06 11:12:00;;;;;;;10.70;6.45;;;;;;;7.43;81.88;98218.41;5074197;28;20016;-71
2024/02/06 11:14:26;;;;;;;9.38;6.47;;;;;;;7.36;81.80;98218.50;5073055;28;20036;-71
2024/02/06 11:16:54;;;;;;;11.15;6.57;;;;;;;7.48;82.36;98218.56;5074006;28;20031;-71
2024/02/06 11:19:35;;;;;;;10.13;7.40;;;;;;;7.42;81.96;98206.06;5073910;28;20040;-71
2024/02/06 11:22:09;;;;;;;10.57;7.05;;;;;;;7.46;82.39;98189.31;5073980;28;20033;-72